This is the latest recevied weather packets stored in our database for station/object DC1MAK-13. If no packets are shown the sender has not sent any weather packets the latest 10 day(s).
| Time | Temp. | Humidity | Pressure | Rain* | Wind** | Luminosity | Snow |
|---|---|---|---|---|---|---|---|
| 1787418587 | 23.89° C | 41% | 990.6 hPa | - | - | - | - |
| 1787418580 | 23.89° C | 41% | 990.6 hPa | - | - | - | - |
| 1787418287 | 20° C | 49% | 990.6 hPa | - | - | - | - |
| 1787418276 | 20° C | 49% | 990.6 hPa | - | - | - | - |
| 1787417979 | 20° C | 47% | 990.5 hPa | - | - | - | - |
| 1787417675 | 20.56° C | 46% | 990.5 hPa | - | - | - | - |
| 1787417669 | 20.56° C | 46% | 990.5 hPa | - | - | - | - |
| 1787417372 | 21.67° C | 43% | 990.6 hPa | - | - | - | - |
| 1787417062 | 23.33° C | 38% | 990.6 hPa | - | - | - | - |
| 1787416767 | 27.22° C | 32% | 990.6 hPa | - | - | - | - |
| 1787416467 | 26.67° C | 32% | 990.6 hPa | - | - | - | - |
| 1787416158 | 25.56° C | 33% | 990.5 hPa | - | - | - | - |
| 1787416152 | 25.56° C | 33% | 990.5 hPa | - | - | - | - |
| 1787415855 | 25.56° C | 35% | 990.5 hPa | - | - | - | - |
| 1787415849 | 25.56° C | 35% | 990.5 hPa | - | - | - | - |
| 1787415551 | 25° C | 39% | 990.5 hPa | - | - | - | - |
| 1787414947 | 23.89° C | 43% | 990.5 hPa | - | - | - | - |
| 1787414938 | 23.89° C | 43% | 990.5 hPa | - | - | - | - |
| 1787414641 | 22.78° C | 45% | 990.4 hPa | - | - | - | - |
| 1787414337 | 21.67° C | 47% | 990.4 hPa | - | - | - | - |
| 1787414034 | 22.22° C | 46% | 990.3 hPa | - | - | - | - |
| 1787413730 | 22.78° C | 44% | 990.4 hPa | - | - | - | - |
| 1787413724 | 22.78° C | 44% | 990.4 hPa | - | - | - | - |
| 1787413421 | 23.33° C | 42% | 990.3 hPa | - | - | - | - |
| 1787413127 | 23.33° C | 43% | 990.3 hPa | - | - | - | - |
* Rain since midnight (hover to see other rain measurements)
** Current wind speed in m/s (hover to see current wind gust speed)